TAF KWWR
KWWR 090520Z 0906/1006 19021G30KT P6SM SCT250 WS020/22055KT FM090800 24016G23KT P6SM SCT250 WS020/27045KT FM091200 24007KT P6SM SCT250 FM092300 13011G17KT P6SM SKC=
METAR KWWR
WC KWWR
WS KWWR
WV KWWR